createdAt,value
2018-02-18T00:01:20.498Z,927.18
2018-02-18T00:02:52.469Z,927.15
2018-02-18T00:04:24.129Z,927.15
2018-02-18T00:05:55.944Z,927.18
2018-02-18T00:07:27.817Z,927.19
2018-02-18T00:08:59.779Z,927.23
2018-02-18T00:10:31.391Z,927.25
2018-02-18T00:12:03.206Z,927.24
2018-02-18T00:13:35.022Z,927.26
2018-02-18T00:15:06.838Z,927.31
2018-02-18T00:16:38.658Z,927.31
2018-02-18T00:18:10.469Z,927.31
2018-02-18T00:19:42.284Z,927.39
2018-02-18T00:21:14.301Z,927.37
2018-02-18T00:22:45.916Z,927.42
2018-02-18T00:24:17.732Z,927.46
2018-02-18T00:25:49.548Z,927.40
2018-02-18T00:27:21.463Z,927.39
2018-02-18T00:28:53.179Z,927.38
2018-02-18T00:30:24.995Z,927.36
2018-02-18T00:31:56.840Z,927.30
2018-02-18T00:33:28.776Z,927.34
2018-02-18T00:35:00.442Z,927.35
2018-02-18T00:36:32.258Z,927.36
2018-02-18T00:38:04.075Z,927.37
2018-02-18T00:39:35.989Z,927.39
2018-02-18T00:41:07.705Z,927.42
2018-02-18T00:42:39.520Z,927.43
2018-02-18T00:44:11.336Z,927.44
2018-02-18T00:45:43.152Z,927.43
2018-02-18T00:47:14.968Z,927.39
2018-02-18T00:48:46.787Z,927.41
2018-02-18T00:50:18.851Z,927.48
2018-02-18T00:51:50.516Z,927.48
2018-02-18T00:53:22.232Z,927.49
2018-02-18T00:54:54.048Z,927.42
2018-02-18T00:56:25.864Z,927.40
2018-02-18T00:57:57.930Z,927.43
2018-02-18T00:59:29.496Z,927.40
2018-02-18T01:01:01.312Z,927.46
2018-02-18T01:02:33.128Z,927.44
2018-02-18T01:04:05.094Z,927.50
2018-02-18T01:05:36.760Z,927.53
2018-02-18T01:07:08.576Z,927.59
2018-02-18T01:08:40.390Z,927.57
2018-02-18T01:10:12.207Z,927.62
2018-02-18T01:11:44.022Z,927.63
2018-02-18T01:13:15.839Z,927.65
2018-02-18T01:14:47.654Z,927.69
2018-02-18T01:16:19.570Z,927.66
2018-02-18T01:17:51.286Z,927.68
2018-02-18T01:19:23.102Z,927.68
2018-02-18T01:20:54.918Z,927.67
2018-02-18T01:22:26.934Z,927.68
2018-02-18T01:23:58.552Z,927.70
2018-02-18T01:25:30.366Z,927.70
2018-02-18T01:27:02.183Z,927.72
2018-02-18T01:28:33.999Z,927.79
2018-02-18T01:30:05.818Z,927.77
2018-02-18T01:31:37.631Z,927.77
2018-02-18T01:33:09.450Z,927.78
2018-02-18T01:34:41.565Z,927.81
2018-02-18T01:36:13.081Z,927.80
2018-02-18T01:37:44.897Z,927.82
2018-02-18T01:39:16.714Z,927.82
2018-02-18T01:40:48.631Z,927.81
2018-02-18T01:42:20.347Z,927.80
2018-02-18T01:43:52.164Z,927.84
2018-02-18T01:45:23.981Z,927.79
2018-02-18T01:46:55.797Z,927.82
2018-02-18T01:48:27.615Z,927.86
2018-02-18T01:49:59.431Z,927.85
2018-02-18T01:51:31.247Z,927.89
2018-02-18T01:53:03.164Z,927.93
2018-02-18T01:54:34.880Z,927.89
2018-02-18T01:56:06.701Z,927.90
2018-02-18T01:57:38.515Z,927.87
2018-02-18T01:59:10.432Z,927.92
2018-02-18T02:00:42.148Z,927.87
2018-02-18T02:02:13.965Z,927.83
2018-02-18T02:03:45.782Z,927.87
2018-02-18T02:05:17.599Z,927.87
2018-02-18T02:06:49.415Z,927.85
2018-02-18T02:08:21.238Z,927.80
2018-02-18T02:09:53.048Z,927.84
2018-02-18T02:11:24.966Z,927.81
2018-02-18T02:12:56.681Z,927.78
2018-02-18T02:14:28.497Z,927.74
2018-02-18T02:16:00.314Z,927.74
2018-02-18T02:17:32.131Z,927.75
2018-02-18T02:19:03.947Z,927.72
2018-02-18T02:20:35.764Z,927.69
2018-02-18T02:22:07.580Z,927.65
2018-02-18T02:23:39.396Z,927.65
2018-02-18T02:25:11.213Z,927.60
2018-02-18T02:26:43.030Z,927.64
2018-02-18T02:28:14.846Z,927.57
2018-02-18T02:29:46.914Z,927.59
2018-02-18T02:31:18.480Z,927.60
2018-02-18T02:32:50.297Z,927.61
2018-02-18T02:34:22.113Z,927.58
2018-02-18T02:35:54.079Z,927.52
2018-02-18T02:37:25.747Z,927.50
2018-02-18T02:38:57.564Z,927.46
2018-02-18T02:40:29.379Z,927.43
2018-02-18T02:42:01.194Z,927.36
2018-02-18T02:43:33.014Z,927.35
2018-02-18T02:45:04.928Z,927.31
2018-02-18T02:46:36.645Z,927.32
2018-02-18T02:48:08.562Z,927.27
2018-02-18T02:49:40.287Z,927.29
2018-02-18T02:51:12.102Z,927.26
2018-02-18T02:52:43.909Z,927.27
2018-02-18T02:54:15.880Z,927.23
2018-02-18T02:55:47.543Z,927.21
2018-02-18T02:57:19.359Z,927.21
2018-02-18T02:58:51.175Z,927.19
2018-02-18T03:00:23.092Z,927.16
2018-02-18T03:01:54.811Z,927.14
2018-02-18T03:03:26.623Z,927.12
2018-02-18T03:04:58.721Z,927.11
2018-02-18T03:06:30.358Z,927.07
2018-02-18T03:08:02.074Z,927.01
2018-02-18T03:09:33.889Z,926.98
2018-02-18T03:11:05.705Z,926.93
2018-02-18T03:12:37.522Z,926.98
2018-02-18T03:14:09.337Z,926.94
2018-02-18T03:15:41.154Z,926.97
2018-02-18T03:17:12.971Z,926.94
2018-02-18T03:18:44.788Z,926.93
2018-02-18T03:20:16.604Z,926.91
2018-02-18T03:21:48.428Z,926.92
2018-02-18T03:23:20.237Z,926.92
2018-02-18T03:24:52.254Z,926.88
2018-02-18T03:26:23.870Z,926.88
2018-02-18T03:27:55.687Z,926.86
2018-02-18T03:29:27.503Z,926.81
2018-02-18T03:30:59.421Z,926.75
2018-02-18T03:32:31.136Z,926.76
2018-02-18T03:34:02.952Z,926.69
2018-02-18T03:35:34.768Z,926.70
2018-02-18T03:37:06.586Z,926.73
2018-02-18T03:38:38.402Z,926.73
2018-02-18T03:40:10.218Z,926.70
2018-02-18T03:41:42.035Z,926.73
2018-02-18T03:43:13.953Z,926.71
2018-02-18T03:44:45.668Z,926.69
2018-02-18T03:46:17.484Z,926.64
2018-02-18T03:47:49.300Z,926.62
2018-02-18T03:49:21.120Z,926.60
2018-02-18T03:50:52.933Z,926.65
2018-02-18T03:52:24.750Z,926.66
2018-02-18T03:53:56.565Z,926.68
2018-02-18T03:55:28.480Z,926.65
2018-02-18T03:57:00.196Z,926.65
2018-02-18T03:58:32.064Z,926.66
2018-02-18T04:00:03.828Z,926.65
2018-02-18T04:01:35.895Z,926.64
2018-02-18T04:03:07.460Z,926.69
2018-02-18T04:04:39.276Z,926.64
2018-02-18T04:06:11.092Z,926.63
2018-02-18T04:07:42.909Z,926.61
2018-02-18T04:09:14.725Z,926.60
2018-02-18T04:10:46.541Z,926.61
2018-02-18T04:12:18.357Z,926.60
2018-02-18T04:13:50.173Z,926.59
2018-02-18T04:15:21.999Z,926.57
2018-02-18T04:16:53.806Z,926.60
2018-02-18T04:18:25.622Z,926.59
2018-02-18T04:19:57.538Z,926.62
2018-02-18T04:21:29.255Z,926.58
2018-02-18T04:23:01.071Z,926.55
2018-02-18T04:24:32.886Z,926.52
2018-02-18T04:26:04.803Z,926.46
2018-02-18T04:27:36.519Z,926.46
2018-02-18T04:29:08.335Z,926.48
2018-02-18T04:30:40.151Z,926.49
2018-02-18T04:32:12.079Z,926.49
2018-02-18T04:33:43.783Z,926.49
2018-02-18T04:35:15.599Z,926.51
2018-02-18T04:36:47.415Z,926.51
2018-02-18T04:38:19.581Z,926.54
2018-02-18T04:39:51.049Z,926.48
2018-02-18T04:41:22.864Z,926.49
2018-02-18T04:42:54.679Z,926.46
2018-02-18T04:44:26.646Z,926.44
2018-02-18T04:45:58.311Z,926.44
2018-02-18T04:47:30.128Z,926.44
2018-02-18T04:49:01.943Z,926.49
2018-02-18T04:50:33.759Z,926.46
2018-02-18T04:52:05.575Z,926.45
2018-02-18T04:53:37.394Z,926.48
2018-02-18T04:55:09.208Z,926.39
2018-02-18T04:56:41.223Z,926.42
2018-02-18T04:58:12.840Z,926.43
2018-02-18T04:59:44.654Z,926.39
2018-02-18T05:01:16.470Z,926.31
2018-02-18T05:02:48.436Z,926.26
2018-02-18T05:04:20.102Z,926.23
2018-02-18T05:05:51.918Z,926.23
2018-02-18T05:07:23.734Z,926.19
2018-02-18T05:08:55.698Z,926.18
2018-02-18T05:10:27.364Z,926.13
2018-02-18T05:11:59.180Z,926.15
2018-02-18T05:13:30.995Z,926.12
2018-02-18T05:15:02.911Z,926.10
2018-02-18T05:16:34.627Z,926.08
2018-02-18T05:18:06.442Z,926.04
2018-02-18T05:19:38.258Z,926.01
2018-02-18T05:21:10.174Z,925.92
2018-02-18T05:22:41.889Z,925.87
2018-02-18T05:24:13.705Z,925.85
2018-02-18T05:25:45.521Z,925.78
2018-02-18T05:27:17.438Z,925.77
2018-02-18T05:28:49.152Z,925.77
2018-02-18T05:30:20.968Z,925.73
2018-02-18T05:31:52.784Z,925.71
2018-02-18T05:33:24.800Z,925.67
2018-02-18T05:34:56.416Z,925.61
2018-02-18T05:36:28.231Z,925.60
2018-02-18T05:38:00.048Z,925.54
2018-02-18T05:39:31.865Z,925.51
2018-02-18T05:41:03.679Z,925.48
2018-02-18T05:42:35.495Z,925.41
2018-02-18T05:44:07.311Z,925.40
2018-02-18T05:45:39.127Z,925.37
2018-02-18T05:47:10.943Z,925.36
2018-02-18T05:48:42.759Z,925.34
2018-02-18T05:50:14.584Z,925.33
2018-02-18T05:51:46.492Z,925.28
2018-02-18T05:53:18.209Z,925.25
2018-02-18T05:54:50.023Z,925.26
2018-02-18T05:56:21.839Z,925.26
2018-02-18T05:57:53.755Z,925.27
2018-02-18T05:59:25.471Z,925.29
2018-02-18T06:00:57.287Z,925.28
2018-02-18T06:02:29.105Z,925.26
2018-02-18T06:04:00.918Z,925.25
2018-02-18T06:05:32.738Z,925.25
2018-02-18T06:07:04.550Z,925.18
2018-02-18T06:08:36.365Z,925.17
2018-02-18T06:10:08.283Z,925.16
2018-02-18T06:11:39.998Z,925.15
2018-02-18T06:13:11.813Z,925.18
2018-02-18T06:14:43.629Z,925.22
2018-02-18T06:16:15.445Z,925.21
2018-02-18T06:17:47.261Z,925.22
2018-02-18T06:19:19.077Z,925.25
2018-02-18T06:20:50.893Z,925.22
2018-02-18T06:22:22.709Z,925.20
2018-02-18T06:23:54.524Z,925.25
2018-02-18T06:25:26.341Z,925.32
2018-02-18T06:26:58.156Z,925.33
2018-02-18T06:28:30.174Z,925.35
2018-02-18T06:30:01.788Z,925.36
2018-02-18T06:31:33.604Z,925.40
2018-02-18T06:33:05.419Z,925.42
2018-02-18T06:34:37.235Z,925.37
2018-02-18T06:36:09.051Z,925.41
2018-02-18T06:37:40.867Z,925.40
2018-02-18T06:39:12.683Z,925.39
2018-02-18T06:40:44.649Z,925.37
2018-02-18T06:42:16.319Z,925.33
2018-02-18T06:43:48.131Z,925.31
2018-02-18T06:45:19.947Z,925.21
2018-02-18T06:46:51.864Z,925.22
2018-02-18T06:48:23.580Z,925.25
2018-02-18T06:49:55.396Z,925.22
2018-02-18T06:51:27.212Z,925.17
2018-02-18T06:52:59.029Z,925.19
2018-02-18T06:54:30.845Z,925.17
2018-02-18T06:56:02.660Z,925.13
2018-02-18T06:57:34.476Z,925.14
2018-02-18T06:59:06.292Z,925.14
2018-02-18T07:00:38.109Z,925.14
2018-02-18T07:02:09.924Z,925.08
2018-02-18T07:03:41.740Z,925.08
2018-02-18T07:05:13.756Z,925.09
2018-02-18T07:06:45.372Z,925.09
2018-02-18T07:08:17.189Z,925.08
2018-02-18T07:09:49.038Z,925.16
2018-02-18T07:11:20.972Z,925.19
2018-02-18T07:12:52.635Z,925.18
2018-02-18T07:14:24.455Z,925.17
2018-02-18T07:15:56.270Z,925.20
2018-02-18T07:17:28.088Z,925.22
2018-02-18T07:18:59.900Z,925.23
2018-02-18T07:20:31.715Z,925.23
2018-02-18T07:22:03.531Z,925.23
2018-02-18T07:23:35.451Z,925.19
2018-02-18T07:25:07.202Z,925.21
2018-02-18T07:26:38.979Z,925.18
2018-02-18T07:28:10.797Z,925.14
2018-02-18T07:29:42.611Z,925.10
2018-02-18T07:31:14.428Z,925.18
2018-02-18T07:32:46.246Z,925.15
2018-02-18T07:34:18.059Z,925.16
2018-02-18T07:35:49.976Z,925.17
2018-02-18T07:37:21.715Z,925.22
2018-02-18T07:38:53.510Z,925.25
2018-02-18T07:40:25.325Z,925.27
2018-02-18T07:41:57.241Z,925.24
2018-02-18T07:43:28.961Z,925.21
2018-02-18T07:45:00.773Z,925.20
2018-02-18T07:46:32.589Z,925.17
2018-02-18T07:48:04.406Z,925.26
2018-02-18T07:49:36.220Z,925.23
2018-02-18T07:51:08.036Z,925.26
2018-02-18T07:52:40.055Z,925.24
2018-02-18T07:54:11.668Z,925.20
2018-02-18T07:55:43.484Z,925.23
2018-02-18T07:57:15.300Z,925.23
2018-02-18T07:58:47.116Z,925.26
2018-02-18T08:00:19.036Z,925.28
2018-02-18T08:01:50.748Z,925.27
2018-02-18T08:03:22.564Z,925.30
2018-02-18T08:04:54.380Z,925.32
2018-02-18T08:06:26.196Z,925.33
2018-02-18T08:07:58.012Z,925.35
2018-02-18T08:09:29.828Z,925.29
2018-02-18T08:11:01.646Z,925.31
2018-02-18T08:12:33.458Z,925.30
2018-02-18T08:14:05.275Z,925.29
2018-02-18T08:15:37.090Z,925.31
2018-02-18T08:17:08.907Z,925.28
2018-02-18T08:18:40.823Z,925.39
2018-02-18T08:20:12.539Z,925.41
2018-02-18T08:21:44.353Z,925.42
2018-02-18T08:23:16.171Z,925.39
2018-02-18T08:24:47.985Z,925.37
2018-02-18T08:26:19.801Z,925.38
2018-02-18T08:27:51.617Z,925.40
2018-02-18T08:29:23.433Z,925.40
2018-02-18T08:30:55.349Z,925.40
2018-02-18T08:32:27.069Z,925.43
2018-02-18T08:33:58.881Z,925.45
2018-02-18T08:35:30.699Z,925.46
2018-02-18T08:37:02.766Z,925.43
2018-02-18T08:38:34.330Z,925.38
2018-02-18T08:40:06.145Z,925.36
2018-02-18T08:41:37.961Z,925.39
2018-02-18T08:43:09.927Z,925.38
2018-02-18T08:44:41.593Z,925.37
2018-02-18T08:46:13.409Z,925.31
2018-02-18T08:47:45.225Z,925.30
2018-02-18T08:49:17.042Z,925.33
2018-02-18T08:50:48.856Z,925.28
2018-02-18T08:52:20.672Z,925.20
2018-02-18T08:53:52.487Z,925.17
2018-02-18T08:55:24.401Z,925.16
2018-02-18T08:56:56.117Z,925.13
2018-02-18T08:58:27.937Z,925.07
2018-02-18T08:59:59.747Z,925.01
2018-02-18T09:01:31.662Z,925.02
2018-02-18T09:03:03.377Z,924.98
2018-02-18T09:04:35.192Z,924.94
2018-02-18T09:06:07.007Z,924.94
2018-02-18T09:07:38.821Z,924.97
2018-02-18T09:09:10.636Z,925.05
2018-02-18T09:10:42.450Z,925.02
2018-02-18T09:12:14.265Z,925.06
2018-02-18T09:13:46.180Z,925.07
2018-02-18T09:15:17.895Z,925.11
2018-02-18T09:16:49.708Z,925.08
2018-02-18T09:18:21.523Z,925.08
2018-02-18T09:19:53.488Z,925.10
2018-02-18T09:21:25.152Z,925.10
2018-02-18T09:22:56.967Z,925.12
2018-02-18T09:24:28.782Z,925.14
2018-02-18T09:26:00.597Z,925.10
2018-02-18T09:27:32.412Z,925.14
2018-02-18T09:29:04.227Z,925.10
2018-02-18T09:30:36.041Z,925.13
2018-02-18T09:32:08.107Z,925.09
2018-02-18T09:33:39.672Z,925.07
2018-02-18T09:35:11.486Z,925.08
2018-02-18T09:36:43.301Z,925.07
2018-02-18T09:38:15.216Z,925.10
2018-02-18T09:39:46.930Z,925.10
2018-02-18T09:41:18.746Z,925.06
2018-02-18T09:42:50.560Z,925.00
2018-02-18T09:44:22.376Z,924.93
2018-02-18T09:45:54.190Z,924.95
2018-02-18T09:47:26.005Z,925.00
2018-02-18T09:48:57.820Z,925.05
2018-02-18T09:50:29.736Z,925.08
2018-02-18T09:52:01.453Z,925.07
2018-02-18T09:53:33.265Z,925.11
2018-02-18T09:55:05.080Z,925.13
2018-02-18T09:56:36.896Z,925.12
2018-02-18T09:58:08.714Z,925.18
2018-02-18T09:59:40.529Z,925.19
2018-02-18T10:01:12.346Z,925.20
2018-02-18T10:02:44.258Z,925.27
2018-02-18T10:04:15.976Z,925.30
2018-02-18T10:05:47.790Z,925.37
2018-02-18T10:07:19.606Z,925.38
2018-02-18T10:08:51.522Z,925.40
2018-02-18T10:10:23.239Z,925.44
2018-02-18T10:11:55.054Z,925.49
2018-02-18T10:13:26.872Z,925.53
2018-02-18T10:14:58.836Z,925.50
2018-02-18T10:16:30.504Z,925.52
2018-02-18T10:18:02.320Z,925.52
2018-02-18T10:19:34.136Z,925.58
2018-02-18T10:21:05.955Z,925.59
2018-02-18T10:22:37.770Z,925.61
2018-02-18T10:24:09.589Z,925.63
2018-02-18T10:25:41.407Z,925.65
2018-02-18T10:27:13.320Z,925.66
2018-02-18T10:28:45.034Z,925.69
2018-02-18T10:30:16.850Z,925.68
2018-02-18T10:31:48.672Z,925.69
2018-02-18T10:33:20.588Z,925.71
2018-02-18T10:34:52.299Z,925.74
2018-02-18T10:36:24.116Z,925.75
2018-02-18T10:37:55.932Z,925.83
2018-02-18T10:39:27.748Z,925.82
2018-02-18T10:40:59.567Z,925.86
2018-02-18T10:42:31.381Z,925.90
2018-02-18T10:44:03.198Z,925.92
2018-02-18T10:45:35.265Z,925.93
2018-02-18T10:47:06.831Z,925.96
2018-02-18T10:48:38.648Z,926.00
2018-02-18T10:50:10.464Z,925.96
2018-02-18T10:51:42.281Z,925.96
2018-02-18T10:53:14.098Z,925.99
2018-02-18T10:54:45.915Z,926.02
2018-02-18T10:56:17.732Z,925.98
2018-02-18T10:57:49.549Z,925.89
2018-02-18T10:59:21.365Z,925.91
2018-02-18T11:00:53.185Z,925.96
2018-02-18T11:02:25.000Z,925.93
2018-02-18T11:03:57.018Z,925.96
2018-02-18T11:05:28.635Z,925.95
2018-02-18T11:07:00.452Z,925.97
2018-02-18T11:08:32.270Z,925.97
2018-02-18T11:10:04.188Z,925.92
2018-02-18T11:11:35.905Z,925.92
2018-02-18T11:13:07.723Z,925.98
2018-02-18T11:14:39.541Z,925.95
2018-02-18T11:16:11.508Z,925.95
2018-02-18T11:17:43.218Z,925.94
2018-02-18T11:19:14.993Z,925.89
2018-02-18T11:20:46.810Z,926.00
2018-02-18T11:22:18.728Z,925.95
2018-02-18T11:23:50.447Z,925.98
2018-02-18T11:25:22.262Z,926.01
2018-02-18T11:26:54.079Z,925.98
2018-02-18T11:28:25.897Z,926.01
2018-02-18T11:29:57.738Z,926.04
2018-02-18T11:31:29.533Z,926.01
2018-02-18T11:33:01.351Z,926.04
2018-02-18T11:34:33.269Z,926.05
2018-02-18T11:36:04.986Z,926.06
2018-02-18T11:37:36.805Z,926.05
2018-02-18T11:39:08.623Z,926.05
2018-02-18T11:40:40.641Z,926.05
2018-02-18T11:42:12.330Z,926.10
2018-02-18T11:43:44.078Z,926.07
2018-02-18T11:46:47.716Z,926.14
2018-02-18T11:48:19.536Z,926.11
2018-02-18T11:49:51.354Z,926.15
2018-02-18T11:51:23.174Z,926.20
2018-02-18T11:52:55.042Z,926.20
2018-02-18T11:54:26.813Z,926.20
2018-02-18T11:55:58.632Z,926.20
2018-02-18T11:57:30.455Z,926.18
2018-02-18T11:59:02.371Z,926.20
2018-02-18T12:00:34.090Z,926.21
2018-02-18T12:02:05.909Z,926.25
2018-02-18T12:03:37.729Z,926.31
2018-02-18T12:05:09.649Z,926.27
2018-02-18T12:06:41.368Z,926.27
2018-02-18T12:08:13.188Z,926.17
2018-02-18T12:09:45.007Z,926.12
2018-02-18T12:11:16.828Z,926.15
2018-02-18T12:12:48.646Z,926.10
2018-02-18T12:14:20.466Z,926.18
2018-02-18T12:15:52.285Z,926.24
2018-02-18T12:17:24.355Z,926.23
2018-02-18T12:18:55.924Z,926.25
2018-02-18T12:20:27.744Z,926.22
2018-02-18T12:21:59.869Z,926.24
2018-02-18T12:23:31.383Z,926.28
2018-02-18T12:25:03.202Z,926.37
2018-02-18T12:26:35.022Z,926.39
2018-02-18T12:28:06.853Z,926.48
2018-02-18T12:29:38.662Z,926.46
2018-02-18T12:31:10.482Z,926.52
2018-02-18T12:32:42.302Z,926.52
2018-02-18T12:34:14.127Z,926.57
2018-02-18T12:35:46.149Z,926.56
2018-02-18T12:37:17.777Z,926.56
2018-02-18T12:38:49.594Z,926.52
2018-02-18T12:40:21.409Z,926.47
2018-02-18T12:41:53.231Z,926.41
2018-02-18T12:43:25.053Z,926.38
2018-02-18T12:44:56.896Z,926.34
2018-02-18T12:46:28.699Z,926.31
2018-02-18T12:48:00.521Z,926.31
2018-02-18T12:49:32.343Z,926.32
2018-02-18T12:51:04.169Z,926.33
2018-02-18T12:52:35.992Z,926.34
2018-02-18T12:54:07.912Z,926.33
2018-02-18T12:55:40.155Z,926.34
2018-02-18T12:57:11.456Z,926.35
2018-02-18T12:58:43.278Z,926.43
2018-02-18T13:00:15.105Z,926.49
2018-02-18T13:01:46.922Z,926.51
2018-02-18T13:03:18.745Z,926.51
2018-02-18T13:04:50.567Z,926.53
2018-02-18T13:06:22.490Z,926.52
2018-02-18T13:07:54.213Z,926.55
2018-02-18T13:09:26.036Z,926.47
2018-02-18T13:12:29.944Z,926.55
2018-02-18T13:14:01.505Z,926.57
2018-02-18T13:15:33.326Z,926.63
2018-02-18T13:17:05.149Z,926.58
2018-02-18T13:18:37.121Z,926.64
2018-02-18T13:20:08.793Z,926.66
2018-02-18T13:21:40.616Z,926.73
2018-02-18T13:23:12.440Z,926.75
2018-02-18T13:24:44.262Z,926.79
2018-02-18T13:26:16.084Z,926.76
2018-02-18T13:27:47.917Z,926.76
2018-02-18T13:29:19.732Z,926.77
2018-02-18T13:30:51.655Z,926.75
2018-02-18T13:32:23.379Z,926.70
2018-02-18T13:33:55.203Z,926.62
2018-02-18T13:35:27.025Z,926.57
2018-02-18T13:36:58.851Z,926.50
2018-02-18T13:38:30.674Z,926.49
2018-02-18T13:40:02.501Z,926.46
2018-02-18T13:41:34.323Z,926.49
2018-02-18T13:43:06.149Z,926.54
2018-02-18T13:44:37.972Z,926.52
2018-02-18T13:46:09.997Z,926.53
2018-02-18T13:47:42.529Z,926.49
2018-02-18T13:49:14.065Z,926.60
2018-02-18T13:50:45.266Z,926.62
2018-02-18T13:52:17.091Z,926.64
2018-02-18T13:53:48.913Z,926.63
2018-02-18T13:55:20.737Z,926.64
2018-02-18T13:56:52.559Z,926.65
2018-02-18T13:58:24.382Z,926.66
2018-02-18T13:59:56.205Z,926.60
2018-02-18T14:01:28.029Z,926.54
2018-02-18T14:04:31.677Z,926.54
2018-02-18T14:06:03.499Z,926.52
2018-02-18T14:07:35.879Z,926.49
2018-02-18T14:09:07.152Z,926.48
2018-02-18T14:10:38.970Z,926.43
2018-02-18T14:12:10.797Z,926.40
2018-02-18T14:13:42.619Z,926.47
2018-02-18T14:15:14.443Z,926.49
2018-02-18T14:16:46.268Z,926.51
2018-02-18T14:18:18.092Z,926.53
2018-02-18T14:19:49.917Z,926.48
2018-02-18T14:21:21.741Z,926.37
2018-02-18T14:22:53.870Z,926.39
2018-02-18T14:24:25.392Z,926.32
2018-02-18T14:25:57.317Z,926.32
2018-02-18T14:27:29.041Z,926.21
2018-02-18T14:29:00.866Z,926.27
2018-02-18T14:30:32.691Z,926.25
2018-02-18T14:32:04.515Z,926.31
2018-02-18T14:33:36.340Z,926.27
2018-02-18T14:35:08.166Z,926.33
2018-02-18T14:36:39.991Z,926.30
2018-02-18T14:38:11.965Z,926.32
2018-02-18T14:39:43.639Z,926.26
2018-02-18T14:41:15.463Z,926.23
2018-02-18T14:42:47.288Z,926.18
2018-02-18T14:44:19.313Z,926.18
2018-02-18T14:45:50.937Z,926.25
2018-02-18T14:47:22.764Z,926.10
2018-02-18T14:48:54.586Z,926.04
2018-02-18T14:50:26.415Z,926.00
2018-02-18T14:51:58.236Z,925.95
2018-02-18T14:53:30.061Z,925.88
2018-02-18T14:56:33.708Z,925.83
2018-02-18T14:58:05.838Z,925.79
2018-02-18T14:59:37.355Z,925.80
2018-02-18T15:01:09.179Z,925.74
2018-02-18T15:02:41.105Z,925.79
2018-02-18T15:04:12.830Z,925.80
2018-02-18T15:05:44.649Z,925.76
2018-02-18T15:07:16.477Z,925.83
2018-02-18T15:08:48.397Z,925.77
2018-02-18T15:10:20.120Z,925.64
2018-02-18T15:11:51.961Z,925.60
2018-02-18T15:13:23.967Z,925.51
2018-02-18T15:14:55.893Z,925.47
2018-02-18T15:16:27.412Z,925.43
2018-02-18T15:17:59.235Z,925.48
2018-02-18T15:19:31.057Z,925.49
2018-02-18T15:21:02.980Z,925.50
2018-02-18T15:22:34.702Z,925.46
2018-02-18T15:24:06.525Z,925.47
2018-02-18T15:25:38.347Z,925.42
2018-02-18T15:27:10.171Z,925.39
2018-02-18T15:28:41.991Z,925.34
2018-02-18T15:31:45.634Z,925.45
2018-02-18T15:33:17.459Z,925.40
2018-02-18T15:34:49.278Z,925.38
2018-02-18T15:36:21.099Z,925.40
2018-02-18T15:37:52.928Z,925.43
2018-02-18T15:39:24.943Z,925.46
2018-02-18T15:40:56.566Z,925.41
2018-02-18T15:42:28.386Z,925.40
2018-02-18T15:44:00.208Z,925.33
2018-02-18T15:45:32.031Z,925.28
2018-02-18T15:48:35.675Z,925.16
2018-02-18T15:50:07.499Z,925.06
2018-02-18T15:51:39.323Z,925.03
2018-02-18T15:53:11.142Z,925.02
2018-02-18T15:54:42.966Z,925.08
2018-02-18T15:56:14.786Z,925.10
2018-02-18T15:57:46.708Z,925.03
2018-02-18T15:59:18.431Z,925.06
2018-02-18T16:00:50.253Z,924.96
2018-02-18T16:02:22.078Z,924.92
2018-02-18T16:03:53.897Z,924.93
2018-02-18T16:05:25.720Z,924.88
2018-02-18T16:06:57.850Z,924.83
2018-02-18T16:08:29.364Z,924.80
2018-02-18T16:10:01.287Z,924.74
2018-02-18T16:11:33.008Z,924.72
2018-02-18T16:13:04.830Z,924.74
2018-02-18T16:14:36.659Z,924.74
2018-02-18T16:16:08.576Z,924.72
2018-02-18T16:17:40.298Z,924.67
2018-02-18T16:19:12.120Z,924.67
2018-02-18T16:20:43.943Z,924.61
2018-02-18T16:22:15.767Z,924.62
2018-02-18T16:23:48.111Z,924.56
2018-02-18T16:25:19.410Z,924.57
2018-02-18T16:26:51.232Z,924.51
2018-02-18T16:28:23.054Z,924.51
2018-02-18T16:29:54.886Z,924.50
2018-02-18T16:31:26.700Z,924.48
2018-02-18T16:32:58.520Z,924.53
2018-02-18T16:34:30.443Z,924.53
2018-02-18T16:36:02.166Z,924.58
2018-02-18T16:37:33.986Z,924.57
2018-02-18T16:40:37.734Z,924.56
2018-02-18T16:42:09.452Z,924.55
2018-02-18T16:43:41.276Z,924.57
2018-02-18T16:45:13.101Z,924.49
2018-02-18T16:46:44.920Z,924.38
2018-02-18T16:48:16.742Z,924.32
2018-02-18T16:49:48.565Z,924.34
2018-02-18T16:51:20.387Z,924.40
2018-02-18T16:52:53.113Z,924.39
2018-02-18T16:54:24.052Z,924.43
2018-02-18T16:57:27.718Z,924.49
2018-02-18T16:59:00.026Z,924.50
2018-02-18T17:00:31.324Z,924.47
2018-02-18T17:02:03.147Z,924.45
2018-02-18T17:03:34.969Z,924.47
2018-02-18T17:05:06.791Z,924.44
2018-02-18T17:06:38.614Z,924.40
2018-02-18T17:08:10.436Z,924.41
2018-02-18T17:09:42.258Z,924.41
2018-02-18T17:11:14.281Z,924.43
2018-02-18T17:12:45.905Z,924.46
2018-02-18T17:14:17.930Z,924.41
2018-02-18T17:15:49.855Z,924.43
2018-02-18T17:17:21.372Z,924.43
2018-02-18T17:18:53.199Z,924.47
2018-02-18T17:20:25.025Z,924.45
2018-02-18T17:21:56.842Z,924.38
2018-02-18T17:23:28.666Z,924.30
2018-02-18T17:25:00.490Z,924.21
2018-02-18T17:26:32.314Z,924.15
2018-02-18T17:28:04.137Z,924.16
2018-02-18T17:29:36.061Z,924.16
2018-02-18T17:32:39.609Z,924.11
2018-02-18T17:34:11.432Z,924.10
2018-02-18T17:35:43.356Z,924.12
2018-02-18T17:37:15.079Z,924.11
2018-02-18T17:38:46.903Z,924.02
2018-02-18T17:40:18.726Z,924.07
2018-02-18T17:41:50.650Z,924.08
2018-02-18T17:43:22.371Z,924.04
2018-02-18T17:44:54.196Z,924.04
2018-02-18T17:46:26.025Z,924.12
2018-02-18T17:49:29.970Z,924.03
2018-02-18T17:51:01.491Z,924.08
2018-02-18T17:52:33.315Z,924.04
2018-02-18T17:54:05.139Z,924.06
2018-02-18T17:55:36.964Z,924.11
2018-02-18T17:57:08.787Z,924.07
2018-02-18T17:58:40.611Z,924.08
2018-02-18T18:00:12.435Z,924.11
2018-02-18T18:01:44.259Z,924.09
2018-02-18T18:03:16.083Z,924.07
2018-02-18T18:04:47.907Z,924.05
2018-02-18T18:06:19.935Z,924.07
2018-02-18T18:07:51.655Z,924.03
2018-02-18T18:09:23.389Z,924.03
2018-02-18T18:10:55.206Z,924.01
2018-02-18T18:12:27.026Z,923.97
2018-02-18T18:13:58.853Z,924.03
2018-02-18T18:15:30.675Z,924.03
2018-02-18T18:17:02.501Z,923.97
2018-02-18T18:18:34.324Z,923.90
2018-02-18T18:20:06.146Z,923.82
2018-02-18T18:21:37.971Z,923.85
2018-02-18T18:24:41.619Z,923.80
2018-02-18T18:26:13.846Z,923.80
2018-02-18T18:27:45.266Z,923.75
2018-02-18T18:29:17.090Z,923.75
2018-02-18T18:30:48.913Z,923.75
2018-02-18T18:32:20.737Z,923.74
2018-02-18T18:33:52.561Z,923.71
2018-02-18T18:35:24.383Z,923.75
2018-02-18T18:36:56.206Z,923.71
2018-02-18T18:38:28.029Z,923.63
2018-02-18T18:41:31.677Z,923.54
2018-02-18T18:43:03.801Z,923.50
2018-02-18T18:44:35.876Z,923.48
2018-02-18T18:46:07.142Z,923.48
2018-02-18T18:47:38.965Z,923.44
2018-02-18T18:49:10.787Z,923.44
2018-02-18T18:50:42.609Z,923.43
2018-02-18T18:52:14.430Z,923.37
2018-02-18T18:53:46.253Z,923.41
2018-02-18T18:55:18.075Z,923.36
2018-02-18T18:56:49.900Z,923.35
2018-02-18T18:58:21.921Z,923.37
2018-02-18T18:59:53.843Z,923.36
2018-02-18T19:01:25.362Z,923.35
2018-02-18T19:02:57.283Z,923.38
2018-02-18T19:04:29.003Z,923.36
2018-02-18T19:06:00.825Z,923.37
2018-02-18T19:07:32.651Z,923.36
2018-02-18T19:09:04.468Z,923.38
2018-02-18T19:10:36.289Z,923.38
2018-02-18T19:12:08.110Z,923.44
2018-02-18T19:13:39.931Z,923.39
2018-02-18T19:15:11.852Z,923.37
2018-02-18T19:16:43.576Z,923.38
2018-02-18T19:18:15.398Z,923.37
2018-02-18T19:19:47.215Z,923.36
2018-02-18T19:21:19.286Z,923.26
2018-02-18T19:22:50.857Z,923.27
2018-02-18T19:24:22.694Z,923.29